Terminal Aerodrome Forecast
Issued by NWS

Home | Current Version | Previous Version | Graphics & Text | Print | Product List | Glossary On
Versions: 1 2 3 4 5 6 7 8 9 10 11 12 13 14 15 16 17 18 19 20 21 22 23 24 25 26 27 28 29 30 31 32 33 34 35 36 37 38
000
FTUS43 KLOT 311128
TAFORD
TAF
KORD 311128Z 3112/0118 00000KT 1SM BR SCT002
      TEMPO 3112/3114 1/4SM FG
     FM311500 20003KT P6SM SKC
     FM312100 11006KT P6SM FEW050
     FM010300 19004KT 6SM BR FEW050
     FM011400 22009KT P6SM SCT050=

USA.gov is the U.S. government's official web portal to all federal, state and local government web resources and services.